Time;durP1;ratioP1;P1;durP2;ratioP2;P2;SDS_P1;SDS_P2;PMS_P1;PMS_P2;Temp;Humidity;BMP_temperature;BMP_pressure;BME280_temperature;BME280_humidity;BME280_pressure;Samples;Min_cycle;Max_cycle;Signal;HPM_P1;HPM_P2
2022/12/27 00:01:52;;;;;;;7.68;1.80;;;4.50;99.90;;;;;;5017708;28;20357;-73
2022/12/27 00:04:18;;;;;;;7.88;2.40;;;4.50;99.90;;;;;;5018597;28;20240;-74
2022/12/27 00:06:43;;;;;;;6.88;1.67;;;4.50;99.90;;;;;;5018769;28;20425;-74
2022/12/27 00:09:09;;;;;;;4.97;1.40;;;4.50;99.90;;;;;;5018213;28;20030;-74
2022/12/27 00:11:35;;;;;;;8.98;1.63;;;4.50;99.90;;;;;;5017884;28;20120;-74
2022/12/27 00:14:03;;;;;;;8.18;1.48;;;4.50;99.90;;;;;;5019587;28;20401;-74
2022/12/27 00:16:29;;;;;;;14.65;1.67;;;4.50;99.90;;;;;;5017201;28;20037;-74
2022/12/27 00:18:54;;;;;;;8.80;1.52;;;4.60;99.90;;;;;;5017071;28;20377;-73
2022/12/27 00:21:21;;;;;;;9.35;1.58;;;4.60;99.90;;;;;;5017630;28;20028;-74
2022/12/27 00:23:49;;;;;;;7.05;1.58;;;4.60;99.90;;;;;;5035161;28;20016;-74
2022/12/27 00:26:18;;;;;;;5.68;1.52;;;4.50;99.90;;;;;;5028338;28;20080;-74
2022/12/27 00:28:44;;;;;;;8.00;1.55;;;4.50;99.90;;;;;;5017572;28;20044;-73
2022/12/27 00:31:10;;;;;;;7.05;1.33;;;4.50;99.90;;;;;;5018663;28;20036;-74
2022/12/27 00:33:38;;;;;;;7.20;1.58;;;4.50;99.90;;;;;;5022932;28;20108;-74
2022/12/27 00:36:07;;;;;;;8.43;1.45;;;4.50;99.90;;;;;;5022882;28;20042;-73
2022/12/27 00:38:34;;;;;;;7.13;1.25;;;4.40;99.90;;;;;;5021921;28;20029;-73
2022/12/27 00:40:59;;;;;;;13.77;2.10;;;4.40;99.90;;;;;;5021844;28;20063;-73
2022/12/27 00:43:25;;;;;;;4.38;1.38;;;4.40;99.90;;;;;;5021380;28;20505;-73
2022/12/27 00:45:51;;;;;;;5.82;1.05;;;4.40;99.90;;;;;;5018512;28;20087;-74
2022/12/27 00:48:17;;;;;;;7.30;1.30;;;4.40;99.90;;;;;;5024421;28;20045;-74
2022/12/27 00:50:43;;;;;;;6.03;1.65;;;4.40;99.90;;;;;;5021975;28;20473;-73
2022/12/27 00:53:10;;;;;;;7.85;1.83;;;4.30;99.90;;;;;;5022077;28;20308;-73
2022/12/27 00:55:36;;;;;;;9.20;1.30;;;4.40;99.90;;;;;;5021632;28;20045;-74
2022/12/27 00:58:02;;;;;;;6.38;1.25;;;4.30;99.90;;;;;;5003042;28;20033;-73
2022/12/27 01:00:27;;;;;;;8.77;1.55;;;4.30;99.90;;;;;;5023284;28;20403;-73
2022/12/27 01:02:53;;;;;;;9.18;1.70;;;4.40;99.90;;;;;;5022952;28;20548;-74
2022/12/27 01:05:20;;;;;;;9.05;1.45;;;4.40;99.90;;;;;;5022375;28;20104;-73
2022/12/27 01:07:46;;;;;;;9.55;1.23;;;4.40;99.90;;;;;;5022607;28;20187;-73
2022/12/27 01:10:12;;;;;;;7.32;1.20;;;4.40;99.90;;;;;;5002728;28;20289;-73
2022/12/27 01:12:38;;;;;;;6.80;1.48;;;4.30;99.90;;;;;;5020880;28;20464;-75
2022/12/27 01:15:05;;;;;;;4.57;0.88;;;4.40;99.90;;;;;;5021203;28;20030;-74
2022/12/27 01:17:30;;;;;;;5.35;1.05;;;4.30;99.90;;;;;;5022012;28;20059;-73
2022/12/27 01:19:56;;;;;;;9.30;1.30;;;4.30;99.90;;;;;;5021291;28;20053;-73
2022/12/27 01:22:22;;;;;;;6.78;1.83;;;4.30;99.90;;;;;;5022319;28;20457;-73
2022/12/27 01:24:48;;;;;;;14.68;1.33;;;4.30;99.90;;;;;;5002753;28;20037;-74
2022/12/27 01:27:13;;;;;;;5.07;1.42;;;4.30;99.90;;;;;;5021653;28;20061;-74
2022/12/27 01:29:39;;;;;;;5.20;1.15;;;4.30;99.90;;;;;;5003588;28;20037;-73
2022/12/27 01:32:05;;;;;;;5.72;1.00;;;4.20;99.90;;;;;;5020965;28;20073;-74
2022/12/27 01:34:30;;;;;;;5.40;1.20;;;4.30;99.90;;;;;;5021673;28;20456;-73
2022/12/27 01:36:56;;;;;;;7.38;1.30;;;4.20;99.90;;;;;;5019838;28;20473;-74
2022/12/27 01:39:22;;;;;;;7.68;1.20;;;4.20;99.90;;;;;;5021575;28;20599;-74
2022/12/27 01:44:38;;;;;;;4.63;1.17;;;4.20;99.90;;;;;;5019309;28;20506;-74
2022/12/27 01:47:44;;;;;;;5.70;1.05;;;4.20;99.90;;;;;;5029828;28;20119;-74
2022/12/27 01:50:32;;;;;;;3.90;1.13;;;4.10;99.90;;;;;;5006223;28;20407;-73
2022/12/27 01:53:10;;;;;;;3.47;1.23;;;4.10;99.90;;;;;;5015511;28;20100;-74
2022/12/27 01:55:54;;;;;;;3.78;1.27;;;4.00;99.90;;;;;;5021944;28;20493;-74
2022/12/27 01:58:29;;;;;;;5.57;1.23;;;4.00;99.90;;;;;;5001493;28;20030;-73
2022/12/27 02:00:56;;;;;;;5.72;1.35;;;3.90;99.90;;;;;;5020231;28;20270;-73
2022/12/27 02:03:30;;;;;;;4.53;1.10;;;3.90;99.90;;;;;;5020136;28;20029;-74
2022/12/27 02:05:59;;;;;;;8.18;1.25;;;3.90;99.90;;;;;;5020273;28;20371;-74
2022/12/27 02:08:42;;;;;;;6.25;1.40;;;3.90;99.90;;;;;;5021685;28;20147;-74
2022/12/27 02:11:09;;;;;;;7.80;1.05;;;3.90;99.90;;;;;;5021687;28;20505;-74
2022/12/27 02:13:42;;;;;;;3.30;1.30;;;3.90;99.90;;;;;;5021298;28;20033;-74
2022/12/27 02:16:15;;;;;;;6.68;1.58;;;3.90;99.90;;;;;;5019028;28;20094;-73
2022/12/27 02:18:41;;;;;;;5.95;1.50;;;3.90;99.90;;;;;;5020163;28;20083;-73
2022/12/27 02:21:35;;;;;;;8.25;1.65;;;3.80;99.90;;;;;;5020869;28;20169;-74
2022/12/27 02:24:09;;;;;;;6.25;1.08;;;3.90;99.90;;;;;;5002822;28;20179;-74
2022/12/27 02:26:52;;;;;;;5.47;1.00;;;3.90;99.90;;;;;;5003236;28;20394;-74
2022/12/27 02:29:45;;;;;;;8.00;1.52;;;3.90;99.90;;;;;;5005853;28;20095;-74
2022/12/27 02:32:32;;;;;;;6.10;1.05;;;3.90;99.90;;;;;;5016113;28;20116;-73
2022/12/27 02:35:07;;;;;;;7.30;1.00;;;3.80;99.90;;;;;;5004703;28;20033;-75
2022/12/27 02:37:39;;;;;;;7.70;1.30;;;3.80;99.90;;;;;;5001755;28;20124;-74
2022/12/27 02:54:36;;;;;;;6.65;1.20;;;3.70;99.90;;;;;;5017119;28;20413;-74
2022/12/27 02:57:29;;;;;;;8.63;1.25;;;3.70;99.90;;;;;;5019071;28;20037;-74
2022/12/27 03:03:19;;;;;;;6.60;1.77;;;3.60;99.90;;;;;;5019791;28;20045;-73
2022/12/27 03:09:02;;;;;;;7.53;1.13;;;3.50;99.90;;;;;;5017425;28;20040;-74
2022/12/27 03:17:35;;;;;;;6.43;1.45;;;3.50;99.90;;;;;;5019101;28;20059;-74
2022/12/27 03:25:42;;;;;;;5.38;1.30;;;3.60;99.90;;;;;;5019092;28;20143;-73
2022/12/27 03:34:30;;;;;;;3.63;0.98;;;3.50;99.90;;;;;;5018950;28;20397;-73
2022/12/27 03:40:04;;;;;;;4.88;0.90;;;3.40;99.90;;;;;;5019259;28;20100;-73
2022/12/27 03:45:20;;;;;;;6.47;1.55;;;3.30;99.90;;;;;;5020271;28;20048;-73
2022/12/27 03:48:04;;;;;;;7.18;0.95;;;3.30;99.90;;;;;;5000802;28;20033;-73
2022/12/27 03:50:40;;;;;;;3.35;0.95;;;3.30;99.90;;;;;;5018630;28;20021;-74
2022/12/27 03:53:20;;;;;;;6.97;1.00;;;3.30;99.90;;;;;;4999178;28;20041;-74
2022/12/27 03:55:46;;;;;;;1.90;0.90;;;3.30;99.90;;;;;;5019387;28;20726;-74
2022/12/27 03:58:12;;;;;;;7.75;1.38;;;3.30;99.90;;;;;;5017501;28;20033;-73
2022/12/27 04:00:37;;;;;;;10.85;1.50;;;3.20;99.90;;;;;;5016774;28;20089;-73
2022/12/27 04:03:03;;;;;;;9.25;1.48;;;3.20;99.90;;;;;;5016804;28;20025;-74
2022/12/27 04:05:29;;;;;;;7.90;1.27;;;3.20;99.90;;;;;;5019381;28;20442;-74
2022/12/27 04:35:16;;;;;;;8.05;1.63;;;3.00;99.90;;;;;;5023329;28;20520;-74
2022/12/27 04:37:41;;;;;;;4.10;0.98;;;3.00;99.90;;;;;;5022846;28;20528;-74
2022/12/27 04:56:32;;;;;;;5.82;1.70;;;3.10;99.90;;;;;;5021386;28;20481;-74
2022/12/27 05:04:26;;;;;;;3.30;1.08;;;3.00;99.90;;;;;;5021588;28;20508;-74
2022/12/27 05:06:52;;;;;;;7.93;1.15;;;2.90;99.90;;;;;;5023263;28;20026;-74
2022/12/27 05:14:46;;;;;;;8.00;2.40;;;2.70;99.90;;;;;;5021961;28;20127;-74
2022/12/27 05:17:12;;;;;;;6.32;2.25;;;2.60;99.90;;;;;;5003604;28;20026;-73
2022/12/27 05:19:38;;;;;;;5.88;2.13;;;2.60;99.90;;;;;;5004838;28;20074;-74
2022/12/27 05:27:32;;;;;;;5.63;2.13;;;2.50;99.90;;;;;;5018872;28;20040;-74
2022/12/27 05:29:57;;;;;;;7.03;1.92;;;2.50;99.90;;;;;;5022143;28;20040;-73
2022/12/27 05:32:23;;;;;;;10.23;1.80;;;2.50;99.90;;;;;;5028942;28;20036;-73
2022/12/27 05:34:48;;;;;;;12.75;2.35;;;2.50;99.90;;;;;;5003570;28;20465;-74
2022/12/27 05:37:14;;;;;;;6.20;1.40;;;2.60;99.90;;;;;;5022304;28;20029;-73
2022/12/27 05:39:40;;;;;;;5.47;1.75;;;2.60;99.90;;;;;;5020190;28;20085;-73
2022/12/27 05:42:05;;;;;;;4.63;2.15;;;2.60;99.90;;;;;;5027975;28;20563;-74
2022/12/27 05:44:31;;;;;;;9.25;2.33;;;2.70;99.90;;;;;;5006867;28;20037;-74
2022/12/27 05:46:56;;;;;;;11.20;2.55;;;2.60;99.90;;;;;;5020908;28;20045;-73
2022/12/27 05:49:22;;;;;;;7.75;2.33;;;2.60;99.90;;;;;;5020933;28;20152;-74
2022/12/27 05:51:48;;;;;;;6.90;2.03;;;2.50;99.90;;;;;;5003026;28;20033;-74
2022/12/27 05:54:13;;;;;;;5.30;2.30;;;2.50;99.90;;;;;;5021420;28;20175;-74
2022/12/27 05:56:40;;;;;;;7.05;2.22;;;2.40;99.90;;;;;;5021355;28;20025;-74
2022/12/27 05:59:06;;;;;;;6.80;2.25;;;2.40;99.90;;;;;;5019977;28;20030;-74
2022/12/27 06:01:33;;;;;;;8.20;2.35;;;2.30;99.90;;;;;;5021820;28;20120;-73
2022/12/27 06:03:58;;;;;;;6.47;2.88;;;2.30;99.90;;;;;;5020228;28;20441;-73
2022/12/27 06:06:24;;;;;;;6.07;2.42;;;2.20;99.90;;;;;;5021161;28;20025;-74
2022/12/27 06:08:50;;;;;;;7.95;2.72;;;2.10;99.90;;;;;;5020108;28;20119;-74
2022/12/27 06:11:17;;;;;;;5.38;2.70;;;2.00;99.90;;;;;;5022053;28;20037;-73
2022/12/27 06:13:48;;;;;;;10.45;2.78;;;2.10;99.90;;;;;;5020350;28;20284;-73
2022/12/27 06:16:14;;;;;;;5.82;2.95;;;2.00;99.90;;;;;;5019995;28;20056;-73
2022/12/27 06:18:41;;;;;;;7.22;3.10;;;2.00;99.90;;;;;;5000719;28;20029;-74
2022/12/27 06:21:11;;;;;;;7.60;3.13;;;2.00;99.90;;;;;;5020242;28;20477;-74
2022/12/27 06:23:38;;;;;;;6.28;2.90;;;1.90;99.90;;;;;;5002528;28;20108;-73
2022/12/27 06:26:10;;;;;;;6.35;2.90;;;1.70;99.90;;;;;;5003089;28;20131;-75
2022/12/27 06:28:36;;;;;;;5.28;2.45;;;1.60;99.90;;;;;;5020985;28;20057;-75
2022/12/27 06:31:02;;;;;;;7.95;2.80;;;1.50;99.90;;;;;;5020070;28;20163;-76
2022/12/27 06:33:29;;;;;;;7.63;2.40;;;1.60;99.90;;;;;;5001250;28;20025;-75
2022/12/27 06:35:54;;;;;;;6.55;2.45;;;1.60;99.90;;;;;;5020063;28;20053;-75
2022/12/27 06:38:20;;;;;;;4.97;2.53;;;1.60;99.90;;;;;;5019663;28;20025;-76
2022/12/27 06:40:46;;;;;;;7.75;2.65;;;1.60;99.90;;;;;;5021050;28;20037;-76
2022/12/27 06:43:11;;;;;;;6.88;2.42;;;1.60;99.90;;;;;;5025165;28;20031;-76
2022/12/27 06:45:37;;;;;;;10.45;3.22;;;1.60;99.90;;;;;;5037929;28;20504;-75
2022/12/27 06:48:03;;;;;;;8.93;2.70;;;1.60;99.90;;;;;;5018791;28;20029;-74
2022/12/27 06:50:29;;;;;;;9.32;2.50;;;1.50;99.90;;;;;;5020143;28;20021;-75
2022/12/27 06:52:55;;;;;;;7.65;2.45;;;1.40;99.90;;;;;;5018733;28;20482;-74
2022/12/27 06:55:21;;;;;;;7.53;2.80;;;1.40;99.90;;;;;;5032154;28;20706;-74
2022/12/27 06:57:46;;;;;;;4.22;2.95;;;1.40;99.90;;;;;;5020379;28;20025;-76
2022/12/27 07:00:13;;;;;;;7.32;2.58;;;1.40;99.90;;;;;;5001650;28;20112;-75
2022/12/27 07:02:39;;;;;;;5.82;2.60;;;1.30;99.90;;;;;;5007654;28;20061;-75
2022/12/27 07:05:05;;;;;;;9.55;2.70;;;1.40;99.90;;;;;;5020535;28;20537;-76
2022/12/27 07:07:31;;;;;;;234.15;88.30;;;1.50;99.90;;;;;;5019309;28;20045;-75
2022/12/27 07:09:57;;;;;;;33.65;14.30;;;1.50;99.90;;;;;;5020349;28;20524;-76
2022/12/27 07:12:22;;;;;;;25.88;9.80;;;1.50;99.90;;;;;;5018985;28;20108;-76
2022/12/27 07:14:48;;;;;;;23.25;9.60;;;1.60;99.90;;;;;;5019674;28;20137;-74
2022/12/27 07:17:13;;;;;;;9.30;3.17;;;1.70;99.90;;;;;;5018304;28;20569;-74
2022/12/27 07:19:39;;;;;;;7.47;2.97;;;1.70;99.90;;;;;;5018144;28;20060;-74
2022/12/27 07:22:05;;;;;;;17.15;3.13;;;1.80;99.90;;;;;;5015448;28;20037;-74
2022/12/27 07:24:32;;;;;;;3.13;2.30;;;1.90;99.90;;;;;;5018210;28;20135;-74
2022/12/27 07:26:58;;;;;;;8.48;2.70;;;1.90;99.90;;;;;;4998690;28;20045;-75
2022/12/27 07:29:24;;;;;;;5.32;2.88;;;2.00;99.90;;;;;;5020259;28;20389;-74
2022/12/27 07:31:50;;;;;;;10.13;3.03;;;2.00;99.90;;;;;;5016619;28;20187;-74
2022/12/27 07:34:16;;;;;;;5.47;2.67;;;2.10;99.90;;;;;;5002097;28;20485;-74
2022/12/27 07:36:42;;;;;;;7.47;2.60;;;2.20;99.90;;;;;;4999700;28;20505;-74
2022/12/27 07:39:08;;;;;;;6.20;2.45;;;2.30;99.90;;;;;;5014718;28;20028;-73
2022/12/27 07:41:34;;;;;;;6.75;2.35;;;2.40;99.90;;;;;;5014893;28;20405;-75
2022/12/27 07:44:01;;;;;;;8.50;2.45;;;2.50;99.90;;;;;;5018094;28;20588;-74
2022/12/27 07:46:27;;;;;;;11.48;2.45;;;2.50;99.90;;;;;;4995796;28;20040;-76
2022/12/27 07:48:54;;;;;;;5.82;2.42;;;2.60;99.90;;;;;;5014293;28;20182;-74
2022/12/27 07:51:19;;;;;;;4.82;2.47;;;2.60;99.90;;;;;;5013035;28;20032;-74
2022/12/27 07:53:48;;;;;;;5.75;2.40;;;2.60;99.90;;;;;;5012296;28;20026;-73
2022/12/27 07:56:19;;;;;;;5.38;2.35;;;2.70;99.90;;;;;;5017635;28;20037;-74
2022/12/27 07:58:45;;;;;;;;;;;2.70;99.90;;;;;;4997802;28;20083;-73
2022/12/27 08:01:12;;;;;;;4.65;2.28;;;2.40;99.90;;;;;;5012175;28;19990;-73
2022/12/27 08:03:38;;;;;;;5.95;2.17;;;2.30;99.90;;;;;;5012559;28;20576;-73
2022/12/27 08:06:06;;;;;;;7.85;2.47;;;2.20;99.90;;;;;;4996510;28;20401;-73
2022/12/27 08:08:38;;;;;;;8.27;1.90;;;2.30;99.90;;;;;;4998670;28;20443;-73
2022/12/27 08:11:04;;;;;;;11.65;1.92;;;2.40;99.90;;;;;;5016662;28;20048;-73
2022/12/27 08:13:30;;;;;;;4.05;1.83;;;2.60;99.90;;;;;;5017030;28;20029;-73
2022/12/27 08:15:55;;;;;;;5.10;1.70;;;2.80;99.90;;;;;;5017697;28;20046;-73
2022/12/27 08:18:21;;;;;;;3.03;1.60;;;2.90;99.90;;;;;;4994769;28;20026;-73
2022/12/27 08:20:46;;;;;;;8.48;1.85;;;3.10;99.90;;;;;;5018859;28;20042;-74
2022/12/27 08:23:12;;;;;;;6.40;2.05;;;3.20;99.90;;;;;;5016064;28;20112;-73
2022/12/27 08:25:38;;;;;;;9.88;2.10;;;3.40;99.90;;;;;;5017027;28;20451;-72
2022/12/27 08:28:05;;;;;;;8.68;1.98;;;3.60;99.90;;;;;;5016839;28;20042;-74
2022/12/27 08:30:31;;;;;;;7.10;1.98;;;3.80;99.90;;;;;;4998148;28;20083;-74
2022/12/27 08:32:56;;;;;;;7.47;2.10;;;4.00;99.90;;;;;;4997745;28;20038;-74
2022/12/27 08:35:22;;;;;;;7.93;2.17;;;4.20;99.90;;;;;;5016918;28;20053;-74
2022/12/27 08:37:48;;;;;;;7.32;1.70;;;4.40;99.90;;;;;;5015456;28;20025;-74
2022/12/27 08:40:13;;;;;;;6.85;1.80;;;4.50;99.90;;;;;;5018143;28;20155;-75
2022/12/27 08:42:39;;;;;;;12.23;2.22;;;4.60;99.90;;;;;;5015275;28;20049;-74
2022/12/27 08:45:05;;;;;;;13.13;2.05;;;4.80;99.90;;;;;;5012730;28;20040;-74
2022/12/27 08:47:30;;;;;;;3.97;1.63;;;4.90;99.90;;;;;;5016351;28;20037;-74
2022/12/27 08:49:56;;;;;;;8.73;1.80;;;5.10;99.90;;;;;;5015607;28;20073;-75
2022/12/27 08:52:22;;;;;;;10.90;1.85;;;5.30;99.90;;;;;;5019304;28;20421;-74
2022/12/27 08:54:47;;;;;;;10.85;2.00;;;5.50;99.90;;;;;;5022934;28;20059;-75
2022/12/27 08:57:13;;;;;;;11.25;2.42;;;5.60;99.90;;;;;;5002490;28;20056;-74
2022/12/27 08:59:38;;;;;;;5.82;1.80;;;5.70;99.90;;;;;;5022844;28;20025;-74
2022/12/27 09:02:04;;;;;;;11.10;1.80;;;5.90;99.90;;;;;;5023263;28;20026;-74
2022/12/27 09:04:29;;;;;;;9.90;1.50;;;6.00;99.90;;;;;;5020574;28;20467;-75
2022/12/27 09:06:55;;;;;;;13.88;1.98;;;6.10;99.90;;;;;;5021058;28;20036;-73
2022/12/27 09:09:21;;;;;;;9.93;1.65;;;6.20;99.90;;;;;;5023164;28;20138;-73
2022/12/27 09:11:46;;;;;;;8.30;1.17;;;6.40;99.90;;;;;;5021629;28;20104;-74
2022/12/27 09:14:12;;;;;;;7.15;1.60;;;6.70;99.90;;;;;;5018422;28;20095;-74
2022/12/27 09:16:38;;;;;;;7.05;0.90;;;6.90;99.90;;;;;;5013579;28;20765;-74
2022/12/27 09:19:04;;;;;;;10.68;1.00;;;7.10;99.90;;;;;;4997013;28;20021;-75
2022/12/27 09:21:31;;;;;;;5.28;0.98;;;7.20;99.90;;;;;;5019455;28;20044;-74
2022/12/27 09:23:57;;;;;;;7.22;1.10;;;7.30;99.90;;;;;;5027022;28;20057;-73
2022/12/27 09:26:26;;;;;;;9.30;1.15;;;7.50;99.90;;;;;;5020539;28;20026;-74
2022/12/27 09:28:52;;;;;;;12.35;0.98;;;7.60;99.90;;;;;;5020296;28;20657;-74
2022/12/27 09:31:19;;;;;;;8.23;0.90;;;7.80;99.90;;;;;;5016793;28;20550;-76
2022/12/27 09:33:45;;;;;;;8.73;1.10;;;7.90;99.90;;;;;;5002456;28;20100;-74
2022/12/27 09:36:12;;;;;;;8.18;1.10;;;8.00;99.90;;;;;;4996985;28;20489;-78
2022/12/27 09:38:39;;;;;;;12.32;1.23;;;8.10;99.90;;;;;;4998465;28;20064;-76
2022/12/27 09:41:32;;;;;;;9.05;1.48;;;8.20;99.90;;;;;;5020111;28;20164;-75
2022/12/27 09:44:06;;;;;;;8.95;0.80;;;8.30;99.90;;;;;;5002053;28;20053;-79
2022/12/27 09:46:47;;;;;;;16.30;1.05;;;8.40;99.90;;;;;;4995550;28;20030;-78
2022/12/27 09:49:17;;;;;;;4.35;1.13;;;8.50;99.90;;;;;;4998626;28;20481;-76
2022/12/27 09:51:49;;;;;;;11.73;1.50;;;8.60;99.90;;;;;;5017195;28;20103;-77
2022/12/27 09:54:44;;;;;;;6.78;1.08;;;8.70;99.90;;;;;;4998791;28;20562;-77
2022/12/27 09:57:18;;;;;;;5.22;1.02;;;8.70;99.90;;;;;;5009761;28;20030;-78
2022/12/27 09:59:48;;;;;;;8.05;0.77;;;8.90;99.90;;;;;;4998899;28;20116;-75
2022/12/27 10:02:22;;;;;;;10.70;1.27;;;9.00;99.90;;;;;;5020210;28;20433;-75
2022/12/27 10:04:49;;;;;;;9.27;1.95;;;9.10;99.90;;;;;;4997988;28;20030;-75
2022/12/27 10:07:31;;;;;;;8.57;0.98;;;9.10;99.90;;;;;;5017135;28;20118;-75
2022/12/27 10:10:22;;;;;;;11.23;1.13;;;9.30;99.90;;;;;;5021366;28;20029;-75
2022/12/27 10:13:06;;;;;;;8.63;1.10;;;9.40;99.90;;;;;;5017613;28;20088;-74
2022/12/27 10:16:21;;;;;;;8.88;1.10;;;9.50;99.90;;;;;;5002537;28;20116;-74
2022/12/27 10:19:01;;;;;;;10.55;1.08;;;9.50;99.90;;;;;;4962155;28;20042;-74
2022/12/27 10:21:32;;;;;;;13.70;1.70;;;9.50;99.90;;;;;;5016703;28;20080;-74
2022/12/27 10:24:01;;;;;;;7.85;0.82;;;9.50;99.90;;;;;;5021328;28;20610;-74
2022/12/27 10:26:27;;;;;;;6.82;0.77;;;9.50;99.90;;;;;;5018123;28;20079;-75
2022/12/27 10:29:19;;;;;;;8.20;1.08;;;9.60;99.90;;;;;;4999193;28;20531;-74
2022/12/27 10:31:45;;;;;;;6.57;1.15;;;9.60;99.90;;;;;;5014616;28;20072;-74
2022/12/27 10:34:14;;;;;;;7.38;1.48;;;9.60;99.90;;;;;;4997062;28;20366;-73
2022/12/27 10:36:40;;;;;;;7.65;0.90;;;9.70;99.90;;;;;;5009897;28;20041;-74
2022/12/27 10:39:20;;;;;;;7.20;0.80;;;9.80;99.90;;;;;;5010011;28;20034;-74
2022/12/27 10:41:58;;;;;;;8.73;0.88;;;9.80;99.90;;;;;;4990810;28;20595;-75
2022/12/27 10:44:24;;;;;;;8.00;1.08;;;9.80;99.90;;;;;;5015345;28;20310;-75
2022/12/27 10:46:53;;;;;;;3.25;1.33;;;10.00;99.90;;;;;;4996726;28;20021;-74
2022/12/27 10:49:26;;;;;;;5.72;0.80;;;10.10;99.90;;;;;;5015464;28;20021;-78
2022/12/27 10:51:56;;;;;;;7.47;1.05;;;10.20;99.90;;;;;;5007920;28;20527;-78
2022/12/27 10:54:23;;;;;;;12.98;0.85;;;10.20;99.90;;;;;;5009155;28;20091;-78
2022/12/27 10:56:49;;;;;;;10.73;1.45;;;10.20;99.90;;;;;;5000128;28;20056;-81
2022/12/27 10:59:19;;;;;;;7.88;1.10;;;10.20;99.90;;;;;;5020601;28;20041;-79
2022/12/27 11:01:47;;;;;;;8.32;2.20;;;10.40;99.90;;;;;;5002288;28;20037;-79
2022/12/27 11:04:23;;;;;;;10.75;1.00;;;10.80;99.90;;;;;;5020934;28;20036;-79
2022/12/27 11:07:09;;;;;;;8.13;1.15;;;11.40;99.90;;;;;;5017659;28;20463;-79
2022/12/27 11:09:42;;;;;;;8.57;1.48;;;11.90;99.90;;;;;;5010193;28;20025;-79
2022/12/27 11:12:22;;;;;;;13.13;1.40;;;12.00;99.90;;;;;;5012188;28;20040;-79
2022/12/27 11:15:04;;;;;;;8.60;1.50;;;11.80;99.90;;;;;;5000800;28;20041;-79
2022/12/27 11:17:48;;;;;;;11.95;1.75;;;11.90;99.90;;;;;;4998646;28;20509;-79
2022/12/27 11:20:23;;;;;;;16.98;1.52;;;12.30;99.90;;;;;;5015628;28;20686;-79
2022/12/27 11:22:54;;;;;;;12.95;1.70;;;12.30;99.90;;;;;;5013191;28;20552;-79
2022/12/27 11:25:21;;;;;;;10.50;1.73;;;12.40;99.90;;;;;;4993435;28;20044;-79
2022/12/27 11:27:50;;;;;;;7.28;1.30;;;12.30;99.90;;;;;;5000009;28;20398;-78
2022/12/27 11:30:31;;;;;;;9.25;1.17;;;12.50;99.90;;;;;;5016782;28;20195;-79
2022/12/27 11:33:21;;;;;;;10.15;1.20;;;12.40;99.90;;;;;;5009160;28;20480;-79
2022/12/27 11:35:51;;;;;;;9.68;1.60;;;12.50;99.90;;;;;;4996527;28;20049;-79
2022/12/27 11:38:25;;;;;;;8.82;1.83;;;12.60;98.20;;;;;;4998923;28;20109;-79
2022/12/27 11:40:58;;;;;;;7.10;1.00;;;12.80;95.00;;;;;;5009695;28;20037;-79
2022/12/27 11:43:26;;;;;;;3.97;0.65;;;13.10;94.10;;;;;;5018234;28;20029;-79
2022/12/27 11:45:54;;;;;;;6.90;1.15;;;13.20;89.70;;;;;;5016604;28;20038;-80
2022/12/27 11:48:28;;;;;;;9.07;1.13;;;13.50;89.60;;;;;;5016781;28;20055;-79
2022/12/27 11:51:33;;;;;;;9.25;1.30;;;13.40;90.00;;;;;;5018680;28;20022;-79
2022/12/27 11:54:13;;;;;;;8.75;1.48;;;13.20;92.50;;;;;;5017568;28;20025;-79
2022/12/27 11:56:51;;;;;;;7.85;0.93;;;13.10;90.90;;;;;;5018327;28;20038;-79
2022/12/27 11:59:26;;;;;;;8.25;0.90;;;12.80;93.90;;;;;;5018169;28;20037;-79
2022/12/27 12:02:14;;;;;;;10.45;1.35;;;12.70;96.40;;;;;;4998481;28;20033;-79
2022/12/27 12:05:08;;;;;;;10.18;1.27;;;12.80;99.30;;;;;;5019348;28;20040;-79
2022/12/27 12:07:45;;;;;;;8.02;1.40;;;12.70;99.50;;;;;;5019620;28;20037;-80
2022/12/27 12:10:54;;;;;;;15.40;1.50;;;12.70;99.90;;;;;;5001564;28;20025;-80
2022/12/27 12:13:23;;;;;;;13.88;2.22;;;12.30;99.90;;;;;;5001282;28;20475;-79
2022/12/27 12:15:54;;;;;;;10.52;1.40;;;12.10;99.90;;;;;;5017493;28;20104;-79
2022/12/27 12:18:32;;;;;;;;;;;12.00;99.90;;;;;;5001654;28;20048;-79
2022/12/27 12:21:26;;;;;;;11.25;1.67;;;11.90;99.90;;;;;;5000956;28;19913;-79
2022/12/27 12:24:16;;;;;;;14.60;1.73;;;11.90;99.90;;;;;;4999234;28;20058;-80
2022/12/27 12:27:02;;;;;;;15.73;1.52;;;11.90;99.90;;;;;;5017445;28;20396;-80
2022/12/27 12:29:37;;;;;;;14.20;1.45;;;11.90;99.90;;;;;;5021799;28;20029;-79
2022/12/27 12:32:35;;;;;;;9.70;1.40;;;11.80;99.90;;;;;;5023496;28;20294;-79
2022/12/27 12:35:30;;;;;;;11.93;1.50;;;11.50;99.90;;;;;;5021949;28;20059;-79
2022/12/27 12:38:02;;;;;;;14.65;1.52;;;11.40;99.90;;;;;;5019667;28;20030;-79
2022/12/27 12:40:55;;;;;;;7.28;1.20;;;11.30;99.90;;;;;;5023911;28;20052;-79
2022/12/27 12:43:36;;;;;;;14.82;1.90;;;11.20;99.90;;;;;;5002358;28;20049;-79
2022/12/27 12:46:20;;;;;;;10.57;1.55;;;11.10;99.90;;;;;;5021057;28;20514;-79
2022/12/27 12:48:55;;;;;;;18.00;2.00;;;11.10;99.90;;;;;;5022159;28;20107;-79
2022/12/27 12:51:40;;;;;;;14.90;1.92;;;11.10;99.90;;;;;;5021086;28;20037;-79
2022/12/27 12:54:14;;;;;;;15.45;1.55;;;11.20;99.90;;;;;;5022285;28;20473;-79
2022/12/27 12:56:57;;;;;;;12.70;1.88;;;11.30;99.90;;;;;;5020294;28;20029;-79
2022/12/27 12:59:38;;;;;;;13.68;2.03;;;11.50;99.90;;;;;;5021879;28;20029;-79
2022/12/27 13:02:41;;;;;;;9.25;1.73;;;11.50;99.90;;;;;;5003953;28;20037;-79
2022/12/27 13:05:10;;;;;;;9.07;1.63;;;11.50;99.90;;;;;;5003514;28;20025;-79
2022/12/27 13:07:42;;;;;;;11.05;1.40;;;11.50;99.90;;;;;;5020844;28;20267;-79
2022/12/27 13:10:40;;;;;;;15.10;2.08;;;11.50;99.90;;;;;;5021612;28;20043;-79
2022/12/27 13:13:48;;;;;;;15.82;1.90;;;11.50;99.90;;;;;;5003157;28;20481;-79
2022/12/27 13:16:36;;;;;;;10.70;1.65;;;11.40;99.90;;;;;;5007420;28;20148;-79
2022/12/27 13:19:49;;;;;;;14.32;1.50;;;11.50;99.90;;;;;;5003845;28;20048;-79
2022/12/27 13:22:32;;;;;;;15.35;1.50;;;11.60;99.90;;;;;;4921321;29;20174;-79
2022/12/27 13:25:16;;;;;;;10.73;1.58;;;11.60;99.90;;;;;;5001344;28;20501;-79
2022/12/27 13:28:08;;;;;;;20.63;3.25;;;11.60;99.90;;;;;;5003389;28;20037;-79
2022/12/27 13:30:50;;;;;;;14.93;1.67;;;11.30;99.90;;;;;;5003649;28;20029;-79
2022/12/27 13:33:41;;;;;;;11.32;1.42;;;11.30;99.90;;;;;;5003936;28;20116;-79
2022/12/27 13:36:38;;;;;;;11.30;1.33;;;11.30;99.90;;;;;;5021091;28;20497;-79
2022/12/27 13:39:10;;;;;;;14.02;1.80;;;11.40;99.90;;;;;;5002978;28;20088;-80
2022/12/27 13:42:21;;;;;;;9.00;1.30;;;11.50;99.90;;;;;;4982185;28;1099405;-79
2022/12/27 13:44:53;;;;;;;13.75;2.20;;;11.70;99.90;;;;;;5003837;28;20492;-79
2022/12/27 13:47:28;;;;;;;17.38;2.70;;;11.60;99.90;;;;;;5021959;28;20026;-79
2022/12/27 13:50:11;;;;;;;9.13;1.20;;;11.60;99.90;;;;;;5022513;28;20048;-79
2022/12/27 13:52:55;;;;;;;8.90;1.63;;;11.40;99.90;;;;;;5004277;28;20118;-79
2022/12/27 13:55:50;;;;;;;10.65;1.35;;;11.30;99.90;;;;;;5003628;28;20045;-79
2022/12/27 13:58:50;;;;;;;12.95;1.83;;;11.10;99.90;;;;;;4984088;28;20356;-79
2022/12/27 14:01:27;;;;;;;13.73;1.55;;;11.00;99.90;;;;;;4986109;28;20076;-79
2022/12/27 14:04:19;;;;;;;24.27;2.60;;;10.90;99.90;;;;;;5023174;28;20031;-79
2022/12/27 14:07:38;;;;;;;17.20;2.25;;;10.90;99.90;;;;;;5007994;28;20037;-79
2022/12/27 14:10:16;;;;;;;12.68;2.03;;;10.90;99.90;;;;;;4921789;29;20031;-79
2022/12/27 14:12:54;;;;;;;8.25;2.28;;;11.00;99.90;;;;;;5020984;28;20129;-79
2022/12/27 14:15:39;;;;;;;16.20;2.15;;;11.10;99.90;;;;;;5003319;28;20397;-79
2022/12/27 14:18:36;;;;;;;9.02;1.95;;;11.10;99.90;;;;;;5003612;28;20404;-79
2022/12/27 14:21:07;;;;;;;15.10;1.90;;;11.10;99.90;;;;;;5002282;28;20056;-79
2022/12/27 14:23:41;;;;;;;14.07;1.92;;;11.10;99.90;;;;;;5021408;28;20032;-79
2022/12/27 14:26:45;;;;;;;14.38;1.67;;;11.00;99.90;;;;;;5021501;28;20074;-79
2022/12/27 14:29:23;;;;;;;16.08;1.92;;;11.10;99.90;;;;;;5020317;28;20057;-79
2022/12/27 14:32:25;;;;;;;12.18;1.23;;;11.10;99.90;;;;;;5003047;28;20095;-79
2022/12/27 14:35:19;;;;;;;13.00;1.50;;;11.10;99.90;;;;;;5021224;28;20041;-80
2022/12/27 14:38:05;;;;;;;12.60;1.98;;;11.20;99.90;;;;;;5020903;28;20036;-80
2022/12/27 14:40:59;;;;;;;16.55;1.77;;;11.20;99.90;;;;;;5017445;28;20037;-79
2022/12/27 14:44:00;;;;;;;9.55;1.60;;;11.00;99.90;;;;;;5018214;28;20042;-80
2022/12/27 14:47:02;;;;;;;8.13;1.20;;;10.80;99.90;;;;;;4921117;29;20050;-80
2022/12/27 14:50:13;;;;;;;11.65;2.10;;;10.70;99.90;;;;;;5001785;28;20120;-79
2022/12/27 14:53:03;;;;;;;15.88;2.53;;;10.70;99.90;;;;;;5001116;28;20025;-79
2022/12/27 14:56:06;;;;;;;12.23;2.20;;;10.70;99.90;;;;;;4999558;28;20115;-79
2022/12/27 14:58:53;;;;;;;6.65;1.52;;;10.70;99.90;;;;;;5000969;28;20041;-79
2022/12/27 15:01:53;;;;;;;10.50;1.80;;;10.60;99.90;;;;;;5001153;28;20022;-80
2022/12/27 15:04:34;;;;;;;12.32;1.55;;;10.60;99.90;;;;;;4987738;28;20042;-79
2022/12/27 15:07:30;;;;;;;14.43;1.90;;;10.60;99.90;;;;;;5012583;28;20030;-80
2022/12/27 15:10:19;;;;;;;16.75;1.77;;;10.50;99.90;;;;;;5020885;28;20044;-80
2022/12/27 15:12:55;;;;;;;12.13;1.70;;;10.50;99.90;;;;;;5020589;28;20037;-80